sensor_id;sensor_type;location;lat;lon;timestamp;P1;durP1;ratioP1;P2;durP2;ratioP2
25175;SDS011;13135;55.166;61.286;2023-03-31T17:51:32;10.33;;;5.67;;
25175;SDS011;13135;55.166;61.286;2023-03-31T17:54:19;4.90;;;3.63;;
25175;SDS011;13135;55.166;61.286;2023-03-31T17:57:04;7.73;;;3.77;;
25175;SDS011;13135;55.166;61.286;2023-03-31T17:59:49;5.30;;;3.77;;
25175;SDS011;13135;55.166;61.286;2023-03-31T18:02:37;5.80;;;3.63;;
25175;SDS011;13135;55.166;61.286;2023-03-31T18:05:25;8.13;;;4.37;;
25175;SDS011;13135;55.166;61.286;2023-03-31T18:08:15;5.50;;;3.60;;
25175;SDS011;13135;55.166;61.286;2023-03-31T18:11:03;5.43;;;3.30;;
25175;SDS011;13135;55.166;61.286;2023-03-31T18:13:47;6.73;;;3.40;;
25175;SDS011;13135;55.166;61.286;2023-03-31T18:16:31;6.23;;;3.30;;
25175;SDS011;13135;55.166;61.286;2023-03-31T18:19:19;6.10;;;3.63;;
25175;SDS011;13135;55.166;61.286;2023-03-31T18:22:03;5.43;;;3.53;;
25175;SDS011;13135;55.166;61.286;2023-03-31T18:24:48;5.03;;;2.80;;
25175;SDS011;13135;55.166;61.286;2023-03-31T18:27:29;5.83;;;3.37;;
25175;SDS011;13135;55.166;61.286;2023-03-31T18:30:16;7.17;;;3.30;;
25175;SDS011;13135;55.166;61.286;2023-03-31T18:32:59;5.93;;;3.67;;
25175;SDS011;13135;55.166;61.286;2023-03-31T18:35:46;4.23;;;3.40;;
25175;SDS011;13135;55.166;61.286;2023-03-31T18:38:30;4.63;;;3.60;;
25175;SDS011;13135;55.166;61.286;2023-03-31T18:41:14;4.10;;;2.97;;
25175;SDS011;13135;55.166;61.286;2023-03-31T18:43:59;8.00;;;4.37;;
25175;SDS011;13135;55.166;61.286;2023-03-31T18:46:45;7.90;;;3.67;;
25175;SDS011;13135;55.166;61.286;2023-03-31T18:49:28;6.03;;;3.90;;
25175;SDS011;13135;55.166;61.286;2023-03-31T18:52:13;8.30;;;3.80;;
25175;SDS011;13135;55.166;61.286;2023-03-31T18:55:01;4.97;;;3.63;;
25175;SDS011;13135;55.166;61.286;2023-03-31T18:57:46;6.23;;;4.10;;
25175;SDS011;13135;55.166;61.286;2023-03-31T19:00:33;6.23;;;3.83;;
25175;SDS011;13135;55.166;61.286;2023-03-31T19:03:20;6.80;;;3.63;;
25175;SDS011;13135;55.166;61.286;2023-03-31T19:06:08;5.80;;;3.67;;
25175;SDS011;13135;55.166;61.286;2023-03-31T19:08:51;6.97;;;3.93;;
25175;SDS011;13135;55.166;61.286;2023-03-31T19:11:38;5.40;;;3.57;;
25175;SDS011;13135;55.166;61.286;2023-03-31T19:14:23;5.87;;;4.03;;
25175;SDS011;13135;55.166;61.286;2023-03-31T19:17:12;7.33;;;4.10;;
25175;SDS011;13135;55.166;61.286;2023-03-31T19:19:57;8.83;;;4.30;;
25175;SDS011;13135;55.166;61.286;2023-03-31T19:22:44;8.00;;;4.40;;
25175;SDS011;13135;55.166;61.286;2023-03-31T19:25:27;7.10;;;3.77;;
25175;SDS011;13135;55.166;61.286;2023-03-31T19:28:13;8.80;;;4.43;;
25175;SDS011;13135;55.166;61.286;2023-03-31T19:30:57;4.90;;;3.67;;
25175;SDS011;13135;55.166;61.286;2023-03-31T19:33:42;6.03;;;4.50;;
25175;SDS011;13135;55.166;61.286;2023-03-31T19:36:27;6.40;;;4.63;;
25175;SDS011;13135;55.166;61.286;2023-03-31T19:39:13;7.73;;;4.27;;
25175;SDS011;13135;55.166;61.286;2023-03-31T19:41:59;7.70;;;4.50;;
25175;SDS011;13135;55.166;61.286;2023-03-31T19:44:43;8.83;;;4.43;;
25175;SDS011;13135;55.166;61.286;2023-03-31T19:47:27;6.80;;;3.90;;
25175;SDS011;13135;55.166;61.286;2023-03-31T19:50:11;8.33;;;4.77;;
25175;SDS011;13135;55.166;61.286;2023-03-31T19:52:56;8.23;;;4.63;;
25175;SDS011;13135;55.166;61.286;2023-03-31T19:55:40;5.93;;;4.07;;
25175;SDS011;13135;55.166;61.286;2023-03-31T19:58:26;8.57;;;4.70;;
25175;SDS011;13135;55.166;61.286;2023-03-31T20:01:14;7.43;;;4.97;;
25175;SDS011;13135;55.166;61.286;2023-03-31T20:04:00;8.47;;;4.80;;
25175;SDS011;13135;55.166;61.286;2023-03-31T20:06:44;7.93;;;4.37;;
25175;SDS011;13135;55.166;61.286;2023-03-31T20:09:37;6.73;;;4.60;;
25175;SDS011;13135;55.166;61.286;2023-03-31T20:12:25;7.97;;;4.60;;
25175;SDS011;13135;55.166;61.286;2023-03-31T20:15:11;8.80;;;5.17;;
25175;SDS011;13135;55.166;61.286;2023-03-31T20:18:06;7.50;;;5.10;;
25175;SDS011;13135;55.166;61.286;2023-03-31T20:20:51;8.73;;;4.00;;
25175;SDS011;13135;55.166;61.286;2023-03-31T20:23:35;7.30;;;4.83;;
25175;SDS011;13135;55.166;61.286;2023-03-31T20:26:27;6.50;;;4.40;;
25175;SDS011;13135;55.166;61.286;2023-03-31T20:29:51;9.40;;;4.90;;
25175;SDS011;13135;55.166;61.286;2023-03-31T20:32:38;7.53;;;4.90;;
25175;SDS011;13135;55.166;61.286;2023-03-31T20:35:22;9.73;;;5.03;;
25175;SDS011;13135;55.166;61.286;2023-03-31T20:38:06;8.90;;;5.23;;
25175;SDS011;13135;55.166;61.286;2023-03-31T20:40:50;10.53;;;5.53;;
25175;SDS011;13135;55.166;61.286;2023-03-31T20:43:36;6.20;;;4.77;;
25175;SDS011;13135;55.166;61.286;2023-03-31T20:46:20;9.90;;;4.93;;
25175;SDS011;13135;55.166;61.286;2023-03-31T20:49:02;8.93;;;5.00;;
25175;SDS011;13135;55.166;61.286;2023-03-31T20:51:46;9.43;;;5.93;;
25175;SDS011;13135;55.166;61.286;2023-03-31T20:54:33;10.43;;;4.73;;
25175;SDS011;13135;55.166;61.286;2023-03-31T20:57:17;10.03;;;5.67;;
25175;SDS011;13135;55.166;61.286;2023-03-31T21:00:02;8.53;;;4.87;;
25175;SDS011;13135;55.166;61.286;2023-03-31T21:02:47;11.80;;;5.30;;
25175;SDS011;13135;55.166;61.286;2023-03-31T21:05:38;8.67;;;4.97;;
25175;SDS011;13135;55.166;61.286;2023-03-31T21:08:17;10.67;;;5.30;;
25175;SDS011;13135;55.166;61.286;2023-03-31T21:11:02;10.33;;;4.87;;
25175;SDS011;13135;55.166;61.286;2023-03-31T21:13:47;11.17;;;5.50;;
25175;SDS011;13135;55.166;61.286;2023-03-31T21:16:33;8.73;;;5.90;;
25175;SDS011;13135;55.166;61.286;2023-03-31T21:19:17;9.50;;;5.13;;
25175;SDS011;13135;55.166;61.286;2023-03-31T21:22:03;11.70;;;5.23;;
25175;SDS011;13135;55.166;61.286;2023-03-31T21:24:46;9.93;;;4.90;;
25175;SDS011;13135;55.166;61.286;2023-03-31T21:27:30;8.30;;;4.93;;
25175;SDS011;13135;55.166;61.286;2023-03-31T21:30:15;9.40;;;4.83;;
25175;SDS011;13135;55.166;61.286;2023-03-31T21:33:02;10.07;;;4.80;;
25175;SDS011;13135;55.166;61.286;2023-03-31T21:35:47;9.20;;;5.40;;
25175;SDS011;13135;55.166;61.286;2023-03-31T21:38:31;10.40;;;5.63;;
25175;SDS011;13135;55.166;61.286;2023-03-31T21:41:13;8.77;;;5.37;;
25175;SDS011;13135;55.166;61.286;2023-03-31T21:43:59;8.93;;;5.00;;
25175;SDS011;13135;55.166;61.286;2023-03-31T21:46:44;8.30;;;5.43;;
25175;SDS011;13135;55.166;61.286;2023-03-31T21:49:29;8.47;;;6.23;;
25175;SDS011;13135;55.166;61.286;2023-03-31T21:52:13;9.80;;;5.13;;
25175;SDS011;13135;55.166;61.286;2023-03-31T21:54:57;9.00;;;5.60;;
25175;SDS011;13135;55.166;61.286;2023-03-31T21:57:43;12.87;;;5.90;;
25175;SDS011;13135;55.166;61.286;2023-03-31T22:00:28;9.43;;;5.00;;
25175;SDS011;13135;55.166;61.286;2023-03-31T22:03:12;10.17;;;5.33;;
25175;SDS011;13135;55.166;61.286;2023-03-31T22:05:56;9.93;;;5.33;;
25175;SDS011;13135;55.166;61.286;2023-03-31T22:08:39;9.10;;;5.53;;
25175;SDS011;13135;55.166;61.286;2023-03-31T22:11:25;11.33;;;5.07;;
25175;SDS011;13135;55.166;61.286;2023-03-31T22:14:10;9.17;;;4.93;;
25175;SDS011;13135;55.166;61.286;2023-03-31T22:16:56;11.63;;;4.83;;
25175;SDS011;13135;55.166;61.286;2023-03-31T22:19:43;13.73;;;5.00;;
25175;SDS011;13135;55.166;61.286;2023-03-31T22:22:26;9.67;;;5.27;;
25175;SDS011;13135;55.166;61.286;2023-03-31T22:25:11;9.07;;;4.80;;
25175;SDS011;13135;55.166;61.286;2023-03-31T22:27:56;11.57;;;5.10;;
25175;SDS011;13135;55.166;61.286;2023-03-31T22:30:40;9.10;;;5.10;;
25175;SDS011;13135;55.166;61.286;2023-03-31T22:33:23;13.77;;;4.97;;
25175;SDS011;13135;55.166;61.286;2023-03-31T22:36:07;9.50;;;5.40;;
25175;SDS011;13135;55.166;61.286;2023-03-31T22:38:55;13.07;;;5.60;;
25175;SDS011;13135;55.166;61.286;2023-03-31T22:41:39;9.93;;;5.47;;
25175;SDS011;13135;55.166;61.286;2023-03-31T22:44:24;8.90;;;5.10;;
25175;SDS011;13135;55.166;61.286;2023-03-31T22:47:09;10.30;;;6.10;;
25175;SDS011;13135;55.166;61.286;2023-03-31T22:49:54;8.90;;;5.10;;
25175;SDS011;13135;55.166;61.286;2023-03-31T22:52:39;10.43;;;4.87;;
25175;SDS011;13135;55.166;61.286;2023-03-31T22:55:24;8.03;;;5.53;;
25175;SDS011;13135;55.166;61.286;2023-03-31T22:58:11;8.07;;;5.27;;
25175;SDS011;13135;55.166;61.286;2023-03-31T23:00:56;9.50;;;5.00;;
25175;SDS011;13135;55.166;61.286;2023-03-31T23:03:43;10.13;;;5.43;;
25175;SDS011;13135;55.166;61.286;2023-03-31T23:06:29;10.00;;;5.57;;
25175;SDS011;13135;55.166;61.286;2023-03-31T23:09:14;8.03;;;4.77;;
25175;SDS011;13135;55.166;61.286;2023-03-31T23:11:58;8.87;;;5.23;;
25175;SDS011;13135;55.166;61.286;2023-03-31T23:14:41;8.20;;;5.10;;
25175;SDS011;13135;55.166;61.286;2023-03-31T23:17:25;10.43;;;5.43;;
25175;SDS011;13135;55.166;61.286;2023-03-31T23:20:11;8.83;;;4.40;;
25175;SDS011;13135;55.166;61.286;2023-03-31T23:22:57;11.07;;;4.77;;
25175;SDS011;13135;55.166;61.286;2023-03-31T23:25:41;8.83;;;5.70;;
25175;SDS011;13135;55.166;61.286;2023-03-31T23:28:25;11.53;;;5.77;;
25175;SDS011;13135;55.166;61.286;2023-03-31T23:31:13;18.37;;;9.77;;
25175;SDS011;13135;55.166;61.286;2023-03-31T23:33:56;11.93;;;6.07;;
25175;SDS011;13135;55.166;61.286;2023-03-31T23:36:42;11.00;;;5.77;;
25175;SDS011;13135;55.166;61.286;2023-03-31T23:39:28;9.47;;;5.03;;
25175;SDS011;13135;55.166;61.286;2023-03-31T23:42:14;9.93;;;5.23;;
25175;SDS011;13135;55.166;61.286;2023-03-31T23:44:58;10.70;;;5.20;;
25175;SDS011;13135;55.166;61.286;2023-03-31T23:47:43;8.77;;;5.33;;
25175;SDS011;13135;55.166;61.286;2023-03-31T23:50:27;10.83;;;6.10;;
25175;SDS011;13135;55.166;61.286;2023-03-31T23:53:12;11.13;;;6.20;;
25175;SDS011;13135;55.166;61.286;2023-03-31T23:56:03;12.53;;;5.60;;
25175;SDS011;13135;55.166;61.286;2023-03-31T23:58:43;10.90;;;5.97;;
